Time;durP1;ratioP1;P1;durP2;ratioP2;P2;SDS_P1;SDS_P2;PMS_P1;PMS_P2;Temp;Humidity;BMP_temperature;BMP_pressure;BME280_temperature;BME280_humidity;BME280_pressure;Samples;Min_cycle;Max_cycle;Signal;HPM_P1;HPM_P2
2022/09/09 00:02:21;;;;;;;13.82;8.43;;;;;;;18.04;81.51;95073.34;5090598;28;20212;-75
2022/09/09 00:05:01;;;;;;;16.20;9.15;;;;;;;17.92;81.98;95067.34;5045664;28;20193;-74
2022/09/09 00:07:50;;;;;;;12.80;8.57;;;;;;;17.97;82.07;95070.88;5090549;28;20203;-74
2022/09/09 00:10:27;;;;;;;13.52;8.75;;;;;;;17.98;81.71;95061.03;5091050;28;20169;-74
2022/09/09 00:13:15;;;;;;;13.35;8.98;;;;;;;17.95;82.02;95067.66;5090560;28;20177;-74
2022/09/09 00:15:54;;;;;;;13.65;8.55;;;;;;;17.93;81.90;95067.09;5090673;28;20184;-75
2022/09/09 00:19:05;;;;;;;15.95;8.57;;;;;;;17.87;82.86;95061.97;5090564;28;20235;-75
2022/09/09 00:21:37;;;;;;;12.35;9.35;;;;;;;17.78;82.46;95050.16;4989092;28;20180;-74
2022/09/09 00:24:16;;;;;;;15.65;9.07;;;;;;;17.64;83.00;95050.53;4986915;28;20182;-74
2022/09/09 00:26:53;;;;;;;17.00;10.18;;;;;;;17.65;83.40;95046.03;5048628;28;20268;-74
2022/09/09 00:29:55;;;;;;;12.88;9.30;;;;;;;17.67;83.55;95044.72;5088325;28;20185;-75
2022/09/09 00:32:22;;;;;;;15.90;10.48;;;;;;;17.69;83.15;95037.28;5090349;28;20173;-75
2022/09/09 00:34:49;;;;;;;40.00;24.23;;;;;;;17.67;83.58;95033.28;5071998;28;20166;-75
2022/09/09 00:37:16;;;;;;;12.95;9.45;;;;;;;17.65;83.27;95028.19;5090145;28;20173;-74
2022/09/09 00:39:51;;;;;;;41.00;23.67;;;;;;;17.66;83.39;95016.47;5072445;28;20299;-74
2022/09/09 00:42:42;;;;;;;29.50;17.80;;;;;;;17.68;83.50;95030.34;5090239;28;20604;-74
2022/09/09 00:45:29;;;;;;;23.42;15.13;;;;;;;17.68;83.42;95030.34;5090337;28;20225;-75
2022/09/09 00:47:56;;;;;;;25.75;14.82;;;;;;;17.68;83.33;95034.88;5090321;28;20322;-74
2022/09/09 00:50:32;;;;;;;21.35;13.73;;;;;;;17.68;83.26;95030.34;5090425;28;20177;-75
2022/09/09 00:53:18;;;;;;;19.58;12.60;;;;;;;17.71;82.88;95029.06;5090242;28;20711;-75
2022/09/09 00:55:56;;;;;;;17.23;11.65;;;;;;;17.77;82.94;95024.59;5081530;28;20166;-74
2022/09/09 00:58:21;;;;;;;18.88;11.75;;;;;;;17.66;83.10;95015.69;5089728;28;20212;-74
2022/09/09 01:00:56;;;;;;;16.38;10.25;;;;;;;17.73;83.39;95033.06;5089703;28;20208;-74
2022/09/09 01:03:37;;;;;;;12.98;8.75;;;;;;;17.66;83.61;95035.13;5089714;28;20643;-75
2022/09/09 01:06:31;;;;;;;13.05;7.95;;;;;;;17.64;83.64;95031.91;5089775;28;20285;-75
2022/09/09 01:09:32;;;;;;;12.35;8.85;;;;;;;17.64;83.67;95028.47;5090157;28;20265;-74
2022/09/09 01:12:17;;;;;;;12.38;8.75;;;;;;;17.67;83.59;95028.75;5093921;28;20557;-74
2022/09/09 01:14:51;;;;;;;16.33;10.07;;;;;;;17.67;83.68;95039.41;5093719;28;20209;-74
2022/09/09 01:17:17;;;;;;;13.68;8.68;;;;;;;17.63;83.80;95037.50;5089684;28;20178;-74
2022/09/09 01:19:42;;;;;;;15.75;9.23;;;;;;;17.58;84.06;95034.72;5094158;28;20555;-74
2022/09/09 01:22:31;;;;;;;28.35;14.20;;;;;;;17.57;84.13;95031.25;5094018;28;20173;-74
2022/09/09 01:25:18;;;;;;;26.83;12.77;;;;;;;17.55;83.93;95029.94;5093562;28;20228;-74
2022/09/09 01:27:46;;;;;;;25.67;14.63;;;;;;;17.55;84.05;95025.41;5087317;28;20241;-74
2022/09/09 01:30:14;;;;;;;20.75;13.75;;;;;;;17.44;84.39;95021.00;5090764;28;20374;-74
2022/09/09 01:32:43;;;;;;;15.13;9.25;;;;;;;17.49;84.38;95038.88;5093616;28;20216;-74
2022/09/09 01:35:14;;;;;;;17.25;7.70;;;;;;;17.49;83.85;95041.53;5093668;28;20165;-74
2022/09/09 01:37:40;;;;;;;15.00;10.43;;;;;;;17.44;84.00;95034.31;5093563;28;20181;-74
2022/09/09 01:40:06;;;;;;;11.20;7.80;;;;;;;17.40;84.09;95033.19;5093107;28;20213;-74
2022/09/09 01:42:31;;;;;;;12.20;7.95;;;;;;;17.44;83.97;95042.31;5093159;28;20207;-74
2022/09/09 01:44:57;;;;;;;14.60;9.07;;;;;;;17.42;84.28;95039.09;5093170;28;20216;-74
2022/09/09 01:47:22;;;;;;;14.93;9.05;;;;;;;17.37;84.12;95043.56;5072618;28;20551;-74
2022/09/09 01:49:48;;;;;;;10.73;7.93;;;;;;;17.20;84.36;95048.94;5093365;28;20561;-74
2022/09/09 01:52:13;;;;;;;10.90;7.82;;;;;;;17.24;84.69;95050.03;5093232;28;20269;-74
2022/09/09 01:54:39;;;;;;;12.82;8.35;;;;;;;17.21;84.78;95047.88;5093097;28;20177;-74
2022/09/09 01:57:19;;;;;;;17.27;8.73;;;;;;;17.25;84.72;95051.66;5092910;28;20625;-74
2022/09/09 02:00:00;;;;;;;19.67;10.30;;;;;;;17.29;84.62;95050.94;5093356;28;20173;-74
2022/09/09 02:02:43;;;;;;;20.38;9.80;;;;;;;17.28;84.42;95048.50;5093028;28;20177;-74
2022/09/09 02:05:26;;;;;;;13.10;7.70;;;;;;;17.29;84.28;95045.59;5074788;28;20193;-74
2022/09/09 02:08:03;;;;;;;20.88;13.68;;;;;;;17.26;84.34;95042.63;5092757;28;20252;-74
2022/09/09 02:10:53;;;;;;;14.48;9.73;;;;;;;17.26;84.32;95042.63;5092594;28;20177;-74
2022/09/09 02:13:21;;;;;;;18.35;11.82;;;;;;;17.18;84.89;95022.56;5090731;28;20564;-74
2022/09/09 02:15:52;;;;;;;12.15;8.60;;;;;;;17.10;85.25;95025.66;5092710;28;20178;-74
2022/09/09 02:18:43;;;;;;;31.48;17.27;;;;;;;17.04;85.85;95028.50;5093012;28;20813;-74
2022/09/09 02:21:11;;;;;;;21.92;12.43;;;;;;;17.08;85.98;95029.63;5078716;28;20251;-74
2022/09/09 02:23:39;;;;;;;22.02;12.68;;;;;;;17.08;86.00;95033.09;5092521;28;20180;-75
2022/09/09 02:26:07;;;;;;;16.48;10.15;;;;;;;17.15;85.39;95035.56;5087813;28;20656;-74
2022/09/09 02:28:34;;;;;;;13.52;8.57;;;;;;;17.14;85.55;95033.94;5092996;28;20258;-75
2022/09/09 02:31:00;;;;;;;16.63;10.65;;;;;;;17.08;85.02;95029.63;5072076;28;20186;-74
2022/09/09 02:33:34;;;;;;;14.75;8.68;;;;;;;17.08;85.43;95029.63;5092595;28;20182;-74
2022/09/09 02:36:03;;;;;;;10.75;7.90;;;;;;;16.97;85.96;95042.78;5092248;28;20170;-74
2022/09/09 02:38:32;;;;;;;9.68;7.82;;;;;;;16.99;86.02;95039.88;5091890;28;20647;-74
2022/09/09 02:40:58;;;;;;;14.18;8.05;;;;;;;17.05;85.98;95059.34;5092200;28;20177;-74
2022/09/09 02:43:24;;;;;;;16.48;9.52;;;;;;;16.97;85.63;95044.63;5092458;28;20620;-74
2022/09/09 02:46:13;;;;;;;14.70;8.80;;;;;;;17.00;85.71;95043.34;5085522;28;20189;-74
2022/09/09 02:48:59;;;;;;;13.02;8.40;;;;;;;16.86;86.26;95043.72;5078665;28;20641;-74
2022/09/09 02:51:33;;;;;;;13.48;9.25;;;;;;;16.98;85.88;95048.91;5092103;28;20177;-75
2022/09/09 02:54:20;;;;;;;34.47;21.02;;;;;;;16.92;85.44;95037.41;5088008;28;20200;-74
2022/09/09 02:56:51;;;;;;;31.48;19.90;;;;;;;16.85;85.44;95023.47;5091656;28;20660;-74
2022/09/09 02:59:17;;;;;;;22.42;12.20;;;;;;;16.77;85.83;95028.41;5088294;28;20277;-74
2022/09/09 03:01:43;;;;;;;17.08;9.48;;;;;;;16.91;85.57;95057.06;5087395;28;20344;-74
2022/09/09 03:04:09;;;;;;;27.85;15.35;;;;;;;16.75;85.94;95038.47;5091936;28;20926;-74
2022/09/09 03:06:35;;;;;;;22.33;13.60;;;;;;;16.82;86.25;95047.91;5091595;28;20181;-74
2022/09/09 03:09:02;;;;;;;18.50;13.57;;;;;;;16.82;86.24;95047.91;5091536;28;20239;-74
2022/09/09 03:11:28;;;;;;;22.98;13.00;;;;;;;16.84;86.05;95048.47;5091576;28;20253;-74
2022/09/09 03:13:55;;;;;;;19.13;9.27;;;;;;;16.82;85.87;95045.22;5091482;28;20201;-74
2022/09/09 03:16:24;;;;;;;26.52;10.82;;;;;;;16.85;85.58;95049.28;5091385;28;20172;-74
2022/09/09 03:18:50;;;;;;;16.13;9.02;;;;;;;16.84;85.50;95037.81;5091368;28;20201;-74
2022/09/09 03:21:15;;;;;;;14.25;9.32;;;;;;;16.77;85.36;95047.84;5091284;28;20213;-74
2022/09/09 03:23:41;;;;;;;16.48;9.55;;;;;;;16.75;85.82;95046.47;5091430;28;20191;-74
2022/09/09 03:26:07;;;;;;;21.05;12.48;;;;;;;16.79;86.27;95047.56;5091008;28;20205;-74
2022/09/09 03:28:32;;;;;;;34.22;20.08;;;;;;;16.80;86.05;95049.19;5091280;28;20186;-74
2022/09/09 03:31:05;;;;;;;16.30;10.48;;;;;;;16.83;85.28;95046.03;5091060;28;20234;-74
2022/09/09 03:33:31;;;;;;;32.30;20.65;;;;;;;16.78;85.89;95048.59;5088303;28;20196;-74
2022/09/09 03:35:57;;;;;;;23.98;13.55;;;;;;;16.76;85.94;95048.06;5091151;28;20166;-74
2022/09/09 03:38:23;;;;;;;13.48;9.25;;;;;;;16.65;86.21;95044.47;5090733;28;20180;-74
2022/09/09 03:40:55;;;;;;;25.40;11.77;;;;;;;16.51;86.53;95027.22;5086476;28;20205;-74
2022/09/09 03:43:25;;;;;;;19.67;10.68;;;;;;;16.63;86.46;95043.88;5088961;28;20184;-74
2022/09/09 03:45:51;;;;;;;15.93;10.30;;;;;;;16.66;86.34;95039.94;5090481;28;20212;-74
2022/09/09 03:48:17;;;;;;;21.63;13.18;;;;;;;16.55;86.41;95020.34;5083556;28;20181;-76
2022/09/09 03:50:46;;;;;;;21.38;14.02;;;;;;;16.64;86.52;95037.53;5091094;28;20260;-74
2022/09/09 03:53:12;;;;;;;23.42;13.23;;;;;;;16.72;86.07;95047.75;5088842;28;20248;-74
2022/09/09 03:55:38;;;;;;;17.38;10.98;;;;;;;16.71;85.88;95050.63;5074645;28;20209;-74
2022/09/09 03:58:03;;;;;;;19.92;10.30;;;;;;;16.70;85.83;95057.00;5077341;28;20182;-74
2022/09/09 04:00:30;;;;;;;17.05;11.80;;;;;;;16.72;85.97;95057.56;5072125;28;20182;-74
2022/09/09 04:02:56;;;;;;;23.15;12.30;;;;;;;16.62;86.28;95052.09;5077894;28;20193;-73
2022/09/09 04:05:22;;;;;;;23.63;12.15;;;;;;;16.42;86.56;95024.16;5084362;28;20246;-74
2022/09/09 04:07:47;;;;;;;24.02;12.55;;;;;;;16.54;86.91;95051.44;5086259;28;20205;-73
2022/09/09 04:10:13;;;;;;;21.55;13.25;;;;;;;16.59;86.72;95059.50;5090266;28;20166;-73
2022/09/09 04:12:38;;;;;;;22.25;13.38;;;;;;;16.67;86.51;95062.81;5089009;28;20908;-74
2022/09/09 04:15:04;;;;;;;22.88;12.75;;;;;;;16.69;86.32;95058.84;5090115;28;20180;-74
2022/09/09 04:17:30;;;;;;;22.27;12.85;;;;;;;16.72;86.31;95061.03;5090285;28;20191;-74
2022/09/09 04:19:56;;;;;;;18.17;11.60;;;;;;;16.74;86.44;95052.81;5090025;28;20191;-74
2022/09/09 04:22:22;;;;;;;16.67;10.77;;;;;;;16.77;86.08;95042.50;5083214;28;20202;-74
2022/09/09 04:24:47;;;;;;;16.60;9.73;;;;;;;16.80;85.65;95039.34;5089890;28;20695;-74
2022/09/09 04:27:13;;;;;;;20.25;10.55;;;;;;;16.86;85.74;95041.06;5085704;28;20613;-74
2022/09/09 04:29:38;;;;;;;18.58;11.75;;;;;;;16.93;85.98;95059.47;5090301;28;20166;-74
2022/09/09 04:32:04;;;;;;;18.77;10.80;;;;;;;16.95;85.90;95055.50;5088883;28;20178;-74
2022/09/09 04:34:31;;;;;;;16.95;10.00;;;;;;;17.09;85.67;95058.63;5083718;28;20184;-74
2022/09/09 04:36:56;;;;;;;19.95;11.07;;;;;;;17.07;85.10;95043.97;5086801;28;20182;-74
2022/09/09 04:39:22;;;;;;;16.00;9.05;;;;;;;17.24;84.78;95066.00;5090338;28;20255;-74
2022/09/09 04:41:48;;;;;;;20.55;10.77;;;;;;;17.27;84.63;95057.53;5090637;28;20973;-74
2022/09/09 04:44:13;;;;;;;23.27;9.95;;;;;;;17.36;84.26;95064.03;5086943;28;20601;-73
2022/09/09 04:46:41;;;;;;;14.40;9.13;;;;;;;17.34;84.07;95050.16;5086326;28;20203;-74
2022/09/09 04:49:06;;;;;;;16.13;9.50;;;;;;;17.42;84.29;95052.41;5089851;28;20177;-73
2022/09/09 04:51:31;;;;;;;15.18;9.00;;;;;;;17.50;84.36;95057.28;5094365;28;20177;-74
2022/09/09 04:53:57;;;;;;;17.27;9.50;;;;;;;17.60;84.08;95049.41;5094454;28;20185;-74
2022/09/09 04:56:23;;;;;;;18.75;9.93;;;;;;;17.85;84.00;95045.44;5094427;28;20201;-74
2022/09/09 04:58:48;;;;;;;16.67;8.65;;;;;;;18.37;83.19;95051.78;5094274;28;20180;-74
2022/09/09 05:01:19;;;;;;;13.45;8.68;;;;;;;19.31;79.75;95059.09;5093317;28;20181;-74
2022/09/09 05:03:46;;;;;;;18.38;8.35;;;;;;;20.61;74.75;95059.69;5093182;28;20186;-74
2022/09/09 05:06:16;;;;;;;18.63;7.57;;;;;;;21.96;68.96;95047.28;5092985;28;20209;-74
2022/09/09 05:08:42;;;;;;;17.27;8.48;;;;;;;23.27;64.72;95045.41;5093118;28;20209;-75
2022/09/09 05:11:29;;;;;;;39.20;8.88;;;;;;;24.50;60.40;95048.94;5092993;28;20177;-74
2022/09/09 05:13:56;;;;;;;9.75;7.13;;;;;;;25.63;56.57;95057.50;5093042;28;20684;-75
2022/09/09 05:16:22;;;;;;;37.72;16.73;;;;;;;26.65;54.08;95064.19;5092946;28;20315;-75
2022/09/09 05:18:51;;;;;;;22.42;9.00;;;;;;;27.55;51.48;95054.91;5092912;28;20645;-74
2022/09/09 05:21:17;;;;;;;23.67;13.23;;;;;;;28.38;48.39;95049.50;5090890;28;20181;-75
2022/09/09 05:23:45;;;;;;;14.15;7.43;;;;;;;28.94;46.80;95023.34;5094074;28;20649;-75
2022/09/09 05:26:14;;;;;;;17.40;7.63;;;;;;;29.62;45.61;95044.06;5093681;28;20763;-75
2022/09/09 05:28:40;;;;;;;19.73;10.75;;;;;;;30.00;44.40;95028.56;5094098;28;20186;-75
2022/09/09 05:31:07;;;;;;;18.42;10.35;;;;;;;30.63;42.98;95047.59;5093755;28;20251;-75
2022/09/09 05:33:35;;;;;;;22.52;11.55;;;;;;;31.08;41.64;95034.88;5090126;28;20181;-75
2022/09/09 05:36:06;;;;;;;19.48;10.10;;;;;;;31.91;40.92;95054.75;5092041;28;20177;-75
2022/09/09 05:38:32;;;;;;;17.00;8.43;;;;;;;32.40;39.56;95053.56;5093643;28;20221;-75
2022/09/09 05:40:58;;;;;;;12.68;8.93;;;;;;;32.70;38.56;95029.50;5093672;28;20182;-75
2022/09/09 05:43:25;;;;;;;16.88;8.55;;;;;;;33.20;38.26;95069.09;5093676;28;20189;-75
2022/09/09 05:46:05;;;;;;;17.90;8.38;;;;;;;33.53;37.33;95055.94;5093737;28;20907;-75
2022/09/09 05:48:32;;;;;;;11.65;7.65;;;;;;;33.82;36.90;95046.53;5093418;28;20246;-76
2022/09/09 05:50:59;;;;;;;15.90;8.20;;;;;;;34.19;36.10;95066.13;5093320;28;20265;-75
2022/09/09 05:53:25;;;;;;;17.15;8.13;;;;;;;34.53;35.27;95061.84;5093459;28;20530;-76
2022/09/09 05:55:50;;;;;;;15.85;8.88;;;;;;;34.78;34.78;95059.66;5093051;28;20174;-76
2022/09/09 05:58:16;;;;;;;16.15;8.45;;;;;;;34.99;33.57;95062.03;5093341;28;20157;-76
2022/09/09 06:00:43;;;;;;;14.35;7.40;;;;;;;35.23;33.33;95063.66;5093229;28;20293;-76
2022/09/09 06:03:11;;;;;;;17.58;7.88;;;;;;;35.15;32.77;95071.75;5093011;28;20564;-75
2022/09/09 06:05:37;;;;;;;12.10;7.65;;;;;;;35.31;32.80;95077.16;5093135;28;20193;-76
2022/09/09 06:08:03;;;;;;;11.48;7.45;;;;;;;35.35;32.79;95078.03;5093001;28;20559;-76
2022/09/09 06:10:28;;;;;;;12.65;7.75;;;;;;;35.43;32.59;95076.19;5093241;28;20185;-76
2022/09/09 06:12:53;;;;;;;14.27;8.65;;;;;;;35.61;32.62;95069.09;5093109;28;20174;-76
2022/09/09 06:15:19;;;;;;;19.48;8.85;;;;;;;35.60;32.34;95064.75;5089476;28;20256;-76
2022/09/09 06:17:45;;;;;;;10.13;7.72;;;;;;;35.88;31.80;95067.22;5092737;28;20667;-76
2022/09/09 06:20:11;;;;;;;8.43;6.80;;;;;;;35.84;31.62;95069.91;5093009;28;20260;-76
2022/09/09 06:22:40;;;;;;;14.25;7.18;;;;;;;35.82;31.49;95069.47;5093074;28;20170;-76
2022/09/09 06:25:06;;;;;;;19.40;6.90;;;;;;;35.71;31.85;95070.44;5086111;28;20197;-76
2022/09/09 06:27:31;;;;;;;12.05;7.18;;;;;;;35.71;31.32;95068.47;5092950;28;20186;-76
2022/09/09 06:29:56;;;;;;;13.95;7.50;;;;;;;35.43;31.36;95078.94;5093003;28;20166;-76
2022/09/09 06:32:22;;;;;;;12.98;7.18;;;;;;;34.61;32.14;95074.53;5092717;28;20659;-76
2022/09/09 06:34:49;;;;;;;14.57;10.27;;;;;;;34.22;32.72;95064.66;5092776;28;20177;-76
2022/09/09 06:37:14;;;;;;;26.67;15.43;;;;;;;33.84;33.67;95054.38;5085065;28;20238;-76
2022/09/09 06:39:40;;;;;;;13.88;9.63;;;;;;;33.54;34.22;95054.81;5092093;28;20225;-76
2022/09/09 06:42:06;;;;;;;14.55;6.57;;;;;;;33.49;35.74;95060.50;5092735;28;20178;-76
2022/09/09 06:44:33;;;;;;;17.05;7.63;;;;;;;32.94;35.57;95048.53;5092213;28;20231;-76
2022/09/09 06:46:58;;;;;;;12.90;7.53;;;;;;;32.60;35.46;95046.34;5089655;28;20182;-75
2022/09/09 06:49:24;;;;;;;19.88;7.03;;;;;;;32.05;36.62;95055.97;5091647;28;20708;-75
2022/09/09 06:51:49;;;;;;;8.38;6.65;;;;;;;31.24;38.54;95039.66;5092382;28;20170;-75
2022/09/09 06:54:15;;;;;;;9.57;6.57;;;;;;;31.22;39.08;95055.56;5092424;28;20249;-75
2022/09/09 06:56:45;;;;;;;9.93;6.72;;;;;;;31.19;40.00;95058.94;5092301;28;20270;-76
2022/09/09 06:59:11;;;;;;;17.35;7.10;;;;;;;31.08;38.68;95055.84;5088686;28;20166;-76
2022/09/09 07:01:51;;;;;;;10.60;7.18;;;;;;;30.88;39.39;95072.97;5092132;28;20181;-75
2022/09/09 07:04:17;;;;;;;13.23;7.22;;;;;;;30.58;40.16;95067.63;5092006;28;20173;-76
2022/09/09 07:06:45;;;;;;;10.15;6.88;;;;;;;30.31;40.85;95077.06;5087905;28;20177;-75
2022/09/09 07:09:13;;;;;;;10.63;7.15;;;;;;;29.90;41.40;95068.84;5085648;28;20605;-74
2022/09/09 07:11:41;;;;;;;15.93;8.00;;;;;;;29.62;42.08;95060.34;5091254;28;20212;-75
2022/09/09 07:14:07;;;;;;;11.30;6.57;;;;;;;29.58;42.76;95052.03;5091634;28;20253;-75
2022/09/09 07:16:36;;;;;;;10.38;7.15;;;;;;;29.29;42.58;95057.41;5091740;28;20166;-75
2022/09/09 07:19:02;;;;;;;15.13;7.18;;;;;;;29.04;43.21;95061.78;5091690;28;20219;-75
2022/09/09 07:21:30;;;;;;;11.80;7.30;;;;;;;28.76;43.27;95060.50;5081628;28;20624;-74
2022/09/09 07:23:56;;;;;;;11.52;7.40;;;;;;;28.61;44.57;95050.97;5074390;28;20605;-74
2022/09/09 07:26:24;;;;;;;10.20;7.78;;;;;;;28.54;43.82;95053.38;5092644;28;20202;-75
2022/09/09 07:28:49;;;;;;;10.50;7.82;;;;;;;28.58;45.86;95051.59;5092203;28;21032;-75
2022/09/09 07:31:16;;;;;;;15.05;7.38;;;;;;;28.79;45.19;95049.06;5091448;28;20178;-74
2022/09/09 07:33:43;;;;;;;10.30;7.13;;;;;;;29.00;45.45;95047.25;5091209;28;20174;-75
2022/09/09 07:36:32;;;;;;;11.73;7.18;;;;;;;28.79;43.35;95043.66;5085107;28;20253;-75
2022/09/09 07:39:01;;;;;;;10.02;6.72;;;;;;;28.71;44.13;95015.41;5091548;28;20221;-75
2022/09/09 07:41:35;;;;;;;11.50;6.72;;;;;;;29.00;44.39;95051.88;5091235;28;20252;-75
2022/09/09 07:44:09;;;;;;;9.43;6.53;;;;;;;29.17;43.81;95057.28;5080225;28;20189;-75
2022/09/09 07:46:35;;;;;;;12.43;7.18;;;;;;;29.14;42.61;95056.03;5090907;28;20197;-76
2022/09/09 07:49:02;;;;;;;9.18;5.90;;;;;;;29.06;44.11;95043.25;5091484;28;20170;-77
2022/09/09 07:51:33;;;;;;;10.68;6.45;;;;;;;29.25;42.20;95054.53;5091288;28;20178;-78
2022/09/09 07:54:01;;;;;;;12.55;6.30;;;;;;;29.25;43.37;95056.44;5083244;28;20173;-77
2022/09/09 07:56:29;;;;;;;11.55;5.78;;;;;;;29.39;42.17;95053.56;5083259;28;20169;-77
2022/09/09 07:58:56;;;;;;;13.27;5.82;;;;;;;29.31;42.11;95065.22;5091799;28;20170;-76
2022/09/09 08:01:38;;;;;;;6.90;5.38;;;;;;;29.12;42.83;95047.41;5084528;28;20225;-77
2022/09/09 08:04:07;;;;;;;8.65;6.38;;;;;;;28.81;42.62;95044.91;5080922;28;20189;-76
2022/09/09 08:06:39;;;;;;;9.48;5.72;;;;;;;27.86;43.88;95025.06;5091164;28;20220;-77
2022/09/09 08:09:05;;;;;;;10.68;5.97;;;;;;;27.73;44.95;95050.34;5083205;28;20224;-77
2022/09/09 08:11:30;;;;;;;13.00;6.00;;;;;;;27.56;45.39;95020.53;5091654;28;20914;-76
2022/09/09 08:13:56;;;;;;;23.98;6.47;;;;;;;27.91;46.75;95040.38;5084422;28;20174;-78
2022/09/09 08:16:27;;;;;;;7.95;5.47;;;;;;;28.15;46.18;95044.22;5092233;28;20195;-81
2022/09/09 08:18:53;;;;;;;11.18;5.63;;;;;;;28.34;45.04;95052.06;5090418;28;20185;-79
2022/09/09 08:21:24;;;;;;;8.75;5.20;;;;;;;28.68;46.35;95045.84;5084533;28;20201;-81
2022/09/09 08:23:52;;;;;;;11.75;6.00;;;;;;;28.81;43.69;95044.09;5089013;28;20173;-77
2022/09/09 08:26:30;;;;;;;9.80;4.82;;;;;;;28.78;45.05;95050.19;5090072;28;20284;-77
2022/09/09 08:28:58;;;;;;;6.63;5.03;;;;;;;28.74;43.71;95041.84;5090938;28;20256;-76
2022/09/09 08:31:32;;;;;;;10.52;5.18;;;;;;;28.68;44.55;95042.34;5067619;28;20177;-77
2022/09/09 08:34:05;;;;;;;9.13;5.13;;;;;;;28.56;43.89;95037.56;5091444;28;20200;-77
2022/09/09 08:36:36;;;;;;;10.82;4.85;;;;;;;28.27;44.73;95027.38;5091177;28;20551;-77
2022/09/09 08:39:04;;;;;;;8.70;4.68;;;;;;;28.09;44.73;95045.50;5088934;28;20224;-76
2022/09/09 08:41:55;;;;;;;10.07;4.28;;;;;;;27.91;45.57;95034.94;5091636;28;20533;-77
2022/09/09 08:44:57;;;;;;;10.57;4.80;;;;;;;27.45;45.74;95025.38;5090139;28;20166;-77
2022/09/09 08:47:26;;;;;;;10.45;5.40;;;;;;;27.40;47.81;95026.34;5090031;28;20184;-77
2022/09/09 08:50:00;;;;;;;10.82;4.30;;;;;;;27.69;46.71;95027.72;5089917;28;20181;-77
2022/09/09 08:52:29;;;;;;;7.15;4.60;;;;;;;27.57;46.70;95030.25;5089332;28;20181;-75
2022/09/09 08:55:36;;;;;;;10.30;5.90;;;;;;;27.58;45.05;95026.44;5090459;28;20169;-76
2022/09/09 08:58:17;;;;;;;9.00;5.72;;;;;;;27.62;45.44;95030.09;5090142;28;20209;-76
2022/09/09 09:01:01;;;;;;;11.40;5.90;;;;;;;27.55;46.16;95021.63;5090053;28;20672;-76
2022/09/09 09:03:39;;;;;;;7.15;4.88;;;;;;;27.46;46.74;95018.06;5070297;28;20725;-76
2022/09/09 09:06:08;;;;;;;11.38;5.78;;;;;;;27.31;46.33;94997.66;5088373;28;20195;-77
2022/09/09 09:08:47;;;;;;;8.20;5.60;;;;;;;27.48;47.71;95023.97;5090083;28;20193;-76
2022/09/09 09:11:12;;;;;;;7.97;5.25;;;;;;;27.78;48.80;95033.94;5090117;28;20177;-77
2022/09/09 09:14:11;;;;;;;8.18;5.32;;;;;;;27.89;46.24;95015.50;5090076;28;20162;-76
2022/09/09 09:16:54;;;;;;;11.65;5.60;;;;;;;27.73;46.03;95021.38;5089678;28;20186;-76
2022/09/09 09:19:22;;;;;;;8.45;6.07;;;;;;;27.49;47.27;95022.88;5090418;28;20174;-76
2022/09/09 09:21:56;;;;;;;12.50;5.43;;;;;;;27.59;47.37;95019.91;5090404;28;20170;-76
2022/09/09 09:24:53;;;;;;;12.65;5.47;;;;;;;27.63;47.23;95013.56;5090794;28;20653;-76
2022/09/09 09:27:24;;;;;;;11.82;5.30;;;;;;;27.60;47.93;95014.16;5080561;28;20182;-78
2022/09/09 09:29:52;;;;;;;13.93;5.72;;;;;;;27.49;48.11;95010.16;5087117;28;20177;-77
2022/09/09 09:32:20;;;;;;;12.18;5.53;;;;;;;27.47;47.01;95022.38;5076109;28;20220;-76
2022/09/09 09:34:56;;;;;;;8.30;4.80;;;;;;;27.23;47.85;94993.81;5093933;28;20174;-77
2022/09/09 09:37:34;;;;;;;10.68;4.68;;;;;;;27.27;47.70;95004.78;5076358;28;20184;-77
2022/09/09 09:40:18;;;;;;;10.13;5.70;;;;;;;27.51;48.06;95005.19;5086133;28;20218;-77
2022/09/09 09:42:56;;;;;;;10.60;4.97;;;;;;;27.45;47.97;95002.94;5088113;28;20201;-76
2022/09/09 09:45:44;;;;;;;9.85;4.78;;;;;;;27.24;47.39;95002.72;5094539;28;20625;-77
2022/09/09 09:48:12;;;;;;;7.85;4.95;;;;;;;27.07;47.79;94998.03;5091443;28;20178;-76
2022/09/09 09:51:00;;;;;;;12.73;5.28;;;;;;;26.71;48.28;94976.53;5075655;28;20532;-76
2022/09/09 09:53:34;;;;;;;8.75;5.10;;;;;;;26.88;48.79;95002.84;5093746;28;20239;-76
2022/09/09 09:56:02;;;;;;;9.23;4.75;;;;;;;26.92;49.04;94987.63;5093891;28;20558;-78
2022/09/09 09:58:32;;;;;;;14.18;5.13;;;;;;;26.95;48.70;94981.59;5093433;28;20174;-76
2022/09/09 10:00:59;;;;;;;12.23;5.00;;;;;;;26.99;48.92;94979.84;5090705;28;20169;-78
2022/09/09 10:03:28;;;;;;;10.63;4.82;;;;;;;26.72;50.03;94950.31;5093765;28;20185;-76
2022/09/09 10:05:56;;;;;;;7.07;4.55;;;;;;;27.01;50.82;94991.16;5093635;28;20193;-76
2022/09/09 10:08:23;;;;;;;9.38;4.93;;;;;;;27.03;52.04;94994.38;5087460;28;20257;-77
2022/09/09 10:11:07;;;;;;;15.10;4.57;;;;;;;27.09;50.42;94997.72;5093089;28;20173;-76
2022/09/09 10:13:50;;;;;;;5.47;4.43;;;;;;;27.05;49.33;95002.97;5090485;28;20201;-76
2022/09/09 10:16:30;;;;;;;8.48;4.95;;;;;;;27.01;50.05;95002.78;5093524;28;20209;-76
2022/09/09 10:19:00;;;;;;;11.45;5.25;;;;;;;26.96;50.71;95004.81;5093641;28;20264;-77
2022/09/09 10:21:44;;;;;;;9.95;5.30;;;;;;;26.91;50.43;95007.66;5093444;28;20174;-78
2022/09/09 10:24:16;;;;;;;13.10;5.03;;;;;;;26.79;51.32;95002.78;5087458;28;20684;-77
2022/09/09 10:26:58;;;;;;;8.35;5.72;;;;;;;26.76;50.91;95005.31;5093316;28;20712;-76
2022/09/09 10:29:26;;;;;;;8.10;5.32;;;;;;;26.53;49.87;95008.03;5086562;28;20182;-76
2022/09/09 10:32:16;;;;;;;11.38;5.30;;;;;;;26.24;50.97;94999.50;5093082;28;20182;-76
2022/09/09 10:35:01;;;;;;;16.27;5.03;;;;;;;26.27;53.48;94998.94;5093135;28;20184;-76
2022/09/09 10:37:51;;;;;;;11.15;5.35;;;;;;;26.25;53.70;95001.91;5087626;28;20185;-76
2022/09/09 10:40:33;;;;;;;6.28;4.82;;;;;;;26.29;54.66;94996.75;5093071;28;20256;-76
2022/09/09 10:43:12;;;;;;;8.85;5.32;;;;;;;26.35;53.01;95013.63;5091754;28;20188;-76
2022/09/09 10:45:43;;;;;;;13.55;6.90;;;;;;;26.27;53.20;94998.94;5088611;28;20606;-76
2022/09/09 10:48:14;;;;;;;13.32;6.40;;;;;;;26.29;54.49;95002.91;5074323;28;20177;-78
2022/09/09 10:51:04;;;;;;;8.52;5.90;;;;;;;26.35;54.19;95017.13;5092357;28;20186;-78
2022/09/09 10:53:51;;;;;;;20.80;6.72;;;;;;;26.33;54.44;95021.22;5086261;28;20188;-78
2022/09/09 10:56:20;;;;;;;9.93;5.78;;;;;;;26.40;54.91;95016.97;5073843;28;20185;-78
2022/09/09 10:59:05;;;;;;;10.82;6.13;;;;;;;26.40;53.57;94989.97;5092304;28;20174;-78
2022/09/09 11:01:44;;;;;;;9.38;6.20;;;;;;;26.53;53.94;95008.03;5092227;28;20207;-77
2022/09/09 11:04:25;;;;;;;13.48;6.72;;;;;;;26.50;54.37;95000.53;5084504;28;20649;-77
2022/09/09 11:06:55;;;;;;;14.07;6.22;;;;;;;26.24;53.59;94967.13;5092273;28;20177;-77
2022/09/09 11:09:31;;;;;;;14.50;6.35;;;;;;;26.34;54.62;94987.72;5092424;28;20205;-77
2022/09/09 11:12:02;;;;;;;15.10;5.75;;;;;;;26.47;55.09;95005.75;5090625;28;20634;-77
2022/09/09 11:14:43;;;;;;;11.00;5.97;;;;;;;26.44;54.45;95001.78;5092053;28;20624;-77
2022/09/09 11:17:26;;;;;;;11.85;6.15;;;;;;;26.40;55.01;94992.69;5091994;28;20231;-77
2022/09/09 11:19:53;;;;;;;14.35;5.82;;;;;;;26.43;55.94;94989.38;5084651;28;20189;-77
2022/09/09 11:22:33;;;;;;;14.25;5.57;;;;;;;26.57;56.21;94998.19;5090741;28;20212;-77
2022/09/09 11:25:15;;;;;;;12.95;5.50;;;;;;;26.65;56.30;94994.75;5091962;28;20729;-77
2022/09/09 11:27:59;;;;;;;12.38;5.70;;;;;;;26.75;56.17;94982.88;5091889;28;20235;-77
2022/09/09 11:30:55;;;;;;;11.75;6.35;;;;;;;26.89;56.03;94978.22;5091842;28;20203;-77
2022/09/09 11:33:49;;;;;;;8.60;5.10;;;;;;;26.97;56.24;94958.56;5087855;28;20174;-77
2022/09/09 11:36:34;;;;;;;12.52;5.43;;;;;;;27.02;55.65;94960.34;5089511;28;20181;-77
2022/09/09 11:39:30;;;;;;;13.07;5.50;;;;;;;27.01;55.50;94950.63;5091453;28;20209;-77
2022/09/09 11:42:23;;;;;;;11.23;5.68;;;;;;;27.02;55.09;94941.41;5091495;28;20248;-76
2022/09/09 11:44:49;;;;;;;8.77;5.90;;;;;;;26.85;54.55;94927.78;5091436;28;20277;-76
2022/09/09 11:47:21;;;;;;;12.25;6.22;;;;;;;26.94;55.76;94931.38;5091235;28;20248;-75
2022/09/09 11:49:48;;;;;;;10.80;5.40;;;;;;;27.00;55.62;94911.97;5091135;28;20203;-75